Sandwich, Canada
Current Conditions -  °F | °C
As of 12:00 AM on Saturday 29 Nov 2014 (Local Time) from CYQG Reporting Station
Overcast Overcast  
Wind Chill: 23°   Ceiling: 7000
Heat Index: 30°   Visibility: 8mi
Dew Point: 25°   Wind: 8mph
Humidity: 80%   Direction: 160°SSE
Pressure: 30.09"   Gusts: NA
Location:  42.28°N, 83.07°W
Report Text: CYQG 290500Z 16007KT 8SM OVC070 M01/M04 A3009 RMK AC8 SLP197
Loading
Personal Weather Stations






























Interactive Weather Map New forecast layout! Learn more

10-Day Weather Forecast

Advertisements
Track Severe Weather on mobile